Alpine Meadows, CA

9:43 PM PDT on September 02, 2014 (GMT -0700)
Rocky Ridge | Change Station
CLOSE
Current Station
Personal Weather Station
Location: Tahoe City, CA
Elevation: 6491 ft
Nearby Weather Stations

Elev 6491 ft 39.18 °N, 120.13 °W | Updated 4 seconds ago

Clear
Clear
58.5 °F
Feels Like 58.5 °F
N
0.9
Wind Variable Wind from West
Gusts 2.0 mph

Today
High -- | Low -- °F
--% Chance of Precip.
Yesterday
High -- | Low -- °F
Precip. -- in
6:30 AM 7:29 PM
First Quarter, 58% visible
Pressure 30.07 in
Visibility 10.0 miles
Clouds Clear
Dew Point 38 °F
Humidity 46%
Rainfall 0.00 in
Snow Depth 0 in , 2 in
UV 0 out of 12
Pollen 8.20 out of 12
Air Quality Not available.
Flu Activity Not available.
METAR KTRK 030435Z AUTO 18003KT 10SM CLR 12/00 A3007 RMK AO2

More Conditions Fewer Conditions

Pressure 30.07 in
Visibility 10.0 miles
Clouds Clear
Dew Point 38 °F
Humidity 46%
Rainfall 0.00 in
Snow Depth 0 in , 2 in
UV 0 out of 12
Pollen 8.20 out of 12
Air Quality Not available.
Flu Activity Not available.
METAR KTRK 030435Z AUTO 18003KT 10SM CLR 12/00 A3007 RMK AO2

More Conditions Fewer Conditions

10-Day Weather Forecast

Almanac

Astronomy

Sep. 02, 2014 Rise Set
Actual Time 6:30 AM PDT 7:29 PM PDT
Civil Twilight 6:02 AM PDT 7:56 PM PDT
Nautical Twilight 5:30 AM PDT 8:29 PM PDT
Astronomical Twilight 4:56 AM PDT 9:02 PM PDT
Moon 2:16 PM PDT (9/2) No Moon Set
Length of Visible Light 13h 53m
Length of Day
12h 59m
Tomorrow will be 2m 27s shorter.
First Quarter, 58% of the Moon is Illuminated
Sep 3
First Quarter
Sep 8
Full
Sep 15
Last Quarter
Sep 24
New
Oct 1
First Quarter

Yesterday's Extremes

State Highs State Lows

Community

WunderPhotos

Upload Photos

1,749,875 photos uploaded!

Nearby

Snow Depth

Station Depth Elevation
Rubicon #2 0 in 7500 ft
CSS Lab 2 in 6900 ft
Echo Peak 0 in 7800 ft
Forestdale Creek 0 in 8029 ft
Blue Lakes 0 in 8000 ft

Earthquake Activity

City Distance Mag. Time & Date
No recent earthquake activity has been reported nearby.
Minimum magnitude displayed is 2.5.

Coastal Water Temperatures

Place Temperature
No Stations Reporting

Nearby Weather Stations